Главная страница
METAR-TAF:

METAR-TAF

Аэропорты :

Алтуна, Пенсильвания, США

широта: 40-18-00N, долгота: 078-19-01W, высота над уровнем моря: 458 м

Текущие метеонаблюдения

Эта сводка был подготовлена 53 минут назад, в 13:53 UTC
Ветер 7 Узел от западный
Температура 2°C
Влажность 60%
Давление 1024 hPa
Видимость: 16.1 км
ясное небо

METAR: KAOO 151353Z AUTO 26007KT 10SM CLR 02/M05 A3024 RMK AO2 SLP257 T00221050

Время: 09:46 (14:46 UTC)

Прогноз

Эта сводка был подготовлена 2 часа и 52 минут назад, в 11:54 UTC
Прогноз действительный с 15-го 12 UTC до 16-го 12 UTC
Ветер 4 Узел от юго-западный
Видимость: 10 км
ясное небо
С 15-го 1500 UTC
Ветер 8 Узел от западный
Видимость: 10 км
ясное небо

TAF: KAOO 151154Z 1512/1612 22004KT P6SM SKC FM151500 26008KT P6SM SKC

Метеонаблюдения и прогнозы для более 4000 аэропортов (сводки METAR и TAF).

Имеющиеся станции представлены на карте желтыми и красными точками.

Чтобы увидеть название станции, наведите на нее мышь.

Затем щелкните, чтобы увидеть метеонаблюдения и метеопрогнозы.

Управление картой: чтобы увеличить масштаб, щелкните зеленые кнопки с черным крестиком; чтобы уменьшить масштаб, щелкните зеленую кнопку с тире; для просмотра соседних карт щелкайте зеленые стрелки.


METAR-TAF: